Terminal Aerodrome Forecast
Issued by NWS Caribou, ME

Home | Current Version | Previous Version | Text Only | Print | Product List | Glossary On
Versions: 1 2 3 4 5 6 7 8 9 10 11 12 13 14 15 16 17 18 19 20 21 22 23 24 25 26 27 28 29 30 31 32 33 34
000
FTUS41 KCAR 020800 AAA
TAFCAR
TAF AMD
KCAR 020806Z 0208/0306 20003KT 5SM BR FEW100
     FM020900 VRB03KT 1SM BR SCT002
     FM021200 VRB03KT P6SM FEW060 SCT200
     FM021700 21007KT P6SM VCSH SCT035 BKN060=

USA.gov is the U.S. government's official web portal to all federal, state and local government web resources and services.